Time;durP1;ratioP1;P1;durP2;ratioP2;P2;SDS_P1;SDS_P2;PMS_P1;PMS_P2;Temp;Humidity;BMP_temperature;BMP_pressure;BME280_temperature;BME280_humidity;BME280_pressure;Samples;Min_cycle;Max_cycle;Signal;HPM_P1;HPM_P2
2023/02/11 00:00:11;;;;;;;60.10;29.88;;;5.40;91.90;;;;;;4985635;28;20502;-72
2023/02/11 00:02:37;;;;;;;52.45;29.55;;;5.50;91.90;;;;;;4997172;28;20035;-72
2023/02/11 00:05:03;;;;;;;52.83;28.35;;;5.50;92.00;;;;;;4988410;28;20092;-72
2023/02/11 00:07:30;;;;;;;49.55;28.10;;;5.50;92.00;;;;;;4994083;28;20037;-72
2023/02/11 00:09:55;;;;;;;50.00;27.85;;;5.50;92.10;;;;;;4986667;28;20034;-71
2023/02/11 00:12:21;;;;;;;56.33;28.38;;;5.40;92.10;;;;;;4988234;28;20042;-73
2023/02/11 00:14:47;;;;;;;49.50;26.30;;;5.50;92.10;;;;;;4991365;28;20097;-72
2023/02/11 00:17:12;;;;;;;59.40;30.25;;;5.60;92.10;;;;;;4999655;28;20031;-71
2023/02/11 00:19:38;;;;;;;59.30;28.95;;;5.60;92.10;;;;;;4992124;28;20084;-72
2023/02/11 00:22:04;;;;;;;54.15;28.92;;;5.60;92.30;;;;;;4987869;28;20561;-72
2023/02/11 00:24:29;;;;;;;56.72;28.40;;;5.60;92.20;;;;;;4984327;28;20030;-72
2023/02/11 00:26:55;;;;;;;46.22;28.23;;;5.60;92.40;;;;;;4984663;28;20054;-72
2023/02/11 00:29:20;;;;;;;55.22;27.17;;;5.60;92.50;;;;;;4988116;28;20042;-72
2023/02/11 00:31:46;;;;;;;54.95;29.92;;;5.60;92.40;;;;;;4995005;28;20034;-72
2023/02/11 00:34:12;;;;;;;45.88;26.20;;;5.60;92.40;;;;;;4991021;28;21049;-73
2023/02/11 00:36:37;;;;;;;61.30;29.83;;;5.60;92.60;;;;;;4994305;28;20098;-72
2023/02/11 00:39:03;;;;;;;55.78;28.80;;;5.60;92.60;;;;;;4992146;28;20034;-72
2023/02/11 00:41:29;;;;;;;47.60;28.35;;;5.60;92.60;;;;;;4994754;28;20034;-72
2023/02/11 00:43:54;;;;;;;54.08;26.67;;;5.60;92.80;;;;;;4992913;28;20161;-71
2023/02/11 00:46:20;;;;;;;52.88;28.63;;;5.60;92.80;;;;;;4987570;28;20031;-71
2023/02/11 00:48:46;;;;;;;52.92;29.27;;;5.60;92.80;;;;;;4993673;28;20478;-72
2023/02/11 00:51:11;;;;;;;58.55;29.10;;;5.60;92.80;;;;;;5002788;28;20044;-72
2023/02/11 00:53:37;;;;;;;54.17;28.63;;;5.60;93.00;;;;;;4992756;28;20056;-72
2023/02/11 00:56:03;;;;;;;46.72;27.65;;;5.60;93.00;;;;;;5000388;28;20042;-72
2023/02/11 00:58:29;;;;;;;57.20;27.45;;;5.60;92.90;;;;;;4984363;28;20126;-72
2023/02/11 01:00:55;;;;;;;52.67;26.60;;;5.60;93.10;;;;;;4988131;28;20466;-72
2023/02/11 01:03:21;;;;;;;47.85;25.55;;;5.60;93.10;;;;;;4996368;28;20038;-74
2023/02/11 01:05:46;;;;;;;54.92;29.95;;;5.60;93.20;;;;;;4989856;28;20030;-72
2023/02/11 01:08:12;;;;;;;60.10;28.15;;;5.70;93.20;;;;;;4993276;28;20097;-74
2023/02/11 01:10:37;;;;;;;56.20;28.98;;;5.60;93.50;;;;;;4991367;28;20502;-73
2023/02/11 01:13:05;;;;;;;55.42;28.98;;;5.60;93.80;;;;;;4985927;28;20065;-72
2023/02/11 01:15:31;;;;;;;48.42;28.02;;;5.60;94.10;;;;;;4990013;28;20072;-74
2023/02/11 01:17:56;;;;;;;53.10;25.65;;;5.60;94.20;;;;;;4991727;28;21132;-73
2023/02/11 01:20:24;;;;;;;52.95;28.10;;;5.50;94.40;;;;;;4989562;28;20379;-72
2023/02/11 01:22:50;;;;;;;52.95;27.42;;;5.50;94.50;;;;;;4987064;28;20026;-72
2023/02/11 01:25:15;;;;;;;54.53;30.08;;;5.50;94.90;;;;;;4993024;28;20038;-71
2023/02/11 01:27:41;;;;;;;57.83;28.88;;;5.50;94.90;;;;;;4987576;28;20057;-73
2023/02/11 01:30:10;;;;;;;50.88;27.77;;;5.50;94.90;;;;;;4987224;28;20101;-72
2023/02/11 01:32:36;;;;;;;62.30;30.20;;;5.50;94.90;;;;;;4993564;28;20041;-72
2023/02/11 01:35:01;;;;;;;55.42;30.50;;;5.50;95.00;;;;;;4992235;28;20030;-73
2023/02/11 01:37:27;;;;;;;63.45;30.52;;;5.50;95.00;;;;;;4995967;28;20042;-72
2023/02/11 01:39:52;;;;;;;64.78;31.40;;;5.50;94.90;;;;;;4993249;28;20093;-72
2023/02/11 01:42:20;;;;;;;62.30;31.75;;;5.50;95.00;;;;;;4998370;28;20039;-72
2023/02/11 01:44:50;;;;;;;52.50;28.40;;;5.60;94.90;;;;;;4990401;28;20029;-72
2023/02/11 01:47:16;;;;;;;52.53;28.30;;;5.60;94.80;;;;;;4999125;28;20022;-72
2023/02/11 01:49:46;;;;;;;56.08;27.08;;;5.60;94.70;;;;;;4995422;28;20045;-72
2023/02/11 01:52:26;;;;;;;49.90;27.80;;;5.60;94.70;;;;;;5003647;28;20034;-73
2023/02/11 01:57:44;;;;;;;55.83;28.35;;;5.60;94.70;;;;;;4993363;28;20064;-72
2023/02/11 02:00:31;;;;;;;49.17;27.20;;;5.60;94.90;;;;;;4986958;28;20045;-71
2023/02/11 02:02:59;;;;;;;51.90;26.88;;;5.60;95.20;;;;;;4990742;28;20054;-72
2023/02/11 02:05:50;;;;;;;50.72;27.15;;;5.60;95.20;;;;;;4989638;28;20042;-71
2023/02/11 02:08:18;;;;;;;51.65;27.67;;;5.60;95.00;;;;;;4984970;28;20487;-74
2023/02/11 02:10:47;;;;;;;52.08;26.92;;;5.60;95.00;;;;;;4985277;28;20038;-72
2023/02/11 02:13:13;;;;;;;51.95;27.08;;;5.60;95.00;;;;;;4988885;28;20104;-72
2023/02/11 02:15:45;;;;;;;47.20;24.33;;;5.60;95.00;;;;;;4989435;28;20035;-72
2023/02/11 02:18:33;;;;;;;49.83;25.67;;;5.70;94.80;;;;;;4988551;28;20035;-72
2023/02/11 02:21:32;;;;;;;54.63;25.95;;;5.80;94.50;;;;;;4992109;28;20042;-72
2023/02/11 02:24:20;;;;;;;48.83;24.90;;;5.70;94.40;;;;;;4986437;28;20053;-73
2023/02/11 02:27:07;;;;;;;46.47;24.58;;;5.80;94.40;;;;;;4985535;28;20049;-73
2023/02/11 02:30:03;;;;;;;50.97;25.15;;;5.80;94.40;;;;;;4987029;28;20483;-73
2023/02/11 02:32:49;;;;;;;47.53;23.38;;;5.80;94.40;;;;;;4985954;28;20042;-74
2023/02/11 02:35:46;;;;;;;48.90;24.80;;;5.80;94.30;;;;;;4988431;28;20034;-72
2023/02/11 02:38:32;;;;;;;37.83;21.35;;;5.80;94.30;;;;;;4984371;28;20065;-72
2023/02/11 02:41:03;;;;;;;45.78;23.50;;;5.90;94.10;;;;;;4996565;28;20023;-72
2023/02/11 02:43:30;;;;;;;55.15;23.98;;;5.90;94.10;;;;;;4990917;28;20026;-73
2023/02/11 02:46:08;;;;;;;45.05;22.75;;;5.90;94.20;;;;;;4990173;28;20045;-72
2023/02/11 02:48:36;;;;;;;44.17;24.33;;;5.90;94.20;;;;;;4993420;28;20046;-73
2023/02/11 02:51:16;;;;;;;43.03;22.90;;;5.90;94.10;;;;;;4998236;28;20069;-72
2023/02/11 02:54:13;;;;;;;45.50;22.55;;;5.90;94.30;;;;;;4986721;28;20026;-73
2023/02/11 02:57:12;;;;;;;40.13;22.52;;;5.90;94.20;;;;;;4988829;28;20066;-73
2023/02/11 03:00:18;;;;;;;43.13;21.60;;;5.90;94.10;;;;;;4987385;28;20427;-72
2023/02/11 03:02:51;;;;;;;42.78;22.13;;;5.90;94.00;;;;;;4987183;28;20039;-74
2023/02/11 03:05:23;;;;;;;43.92;22.35;;;6.00;94.10;;;;;;4985517;28;20037;-73
2023/02/11 03:08:01;;;;;;;39.85;22.63;;;6.00;94.10;;;;;;4989177;28;20416;-72
2023/02/11 03:10:35;;;;;;;42.20;21.48;;;6.00;94.00;;;;;;4980824;28;20042;-72
2023/02/11 03:13:01;;;;;;;37.63;21.20;;;6.00;94.00;;;;;;4991185;28;20113;-72
2023/02/11 03:15:30;;;;;;;43.45;21.75;;;6.00;94.00;;;;;;4984136;28;20030;-72
2023/02/11 03:17:59;;;;;;;35.05;19.95;;;6.10;94.00;;;;;;4990255;28;20389;-72
2023/02/11 03:20:27;;;;;;;40.00;21.75;;;6.10;94.00;;;;;;4987431;28;20038;-72
2023/02/11 03:23:09;;;;;;;39.00;19.70;;;6.10;93.90;;;;;;4989210;28;20038;-74
2023/02/11 03:25:43;;;;;;;43.92;21.70;;;6.10;94.00;;;;;;4987945;28;20148;-72
2023/02/11 03:28:16;;;;;;;35.17;19.63;;;6.10;93.90;;;;;;4983565;28;20281;-73
2023/02/11 03:31:07;;;;;;;41.67;21.15;;;6.10;93.90;;;;;;4982542;28;20375;-73
2023/02/11 03:34:13;;;;;;;40.03;18.85;;;6.10;93.90;;;;;;4994154;28;20041;-73
2023/02/11 03:36:47;;;;;;;37.10;19.20;;;6.10;94.00;;;;;;4985604;28;20030;-73
2023/02/11 03:39:17;;;;;;;35.30;17.95;;;6.10;93.90;;;;;;4990983;28;20033;-72
2023/02/11 03:41:46;;;;;;;37.75;20.42;;;6.10;94.00;;;;;;4990505;28;20030;-72
2023/02/11 03:44:13;;;;;;;38.63;18.50;;;6.10;94.00;;;;;;4988639;28;20069;-73
2023/02/11 03:46:42;;;;;;;30.65;17.58;;;6.10;94.10;;;;;;4991089;28;20092;-72
2023/02/11 03:49:13;;;;;;;34.00;18.00;;;6.10;94.10;;;;;;4989408;28;20061;-72
2023/02/11 03:51:39;;;;;;;33.10;18.13;;;6.10;94.00;;;;;;4989551;28;20038;-73
2023/02/11 03:54:10;;;;;;;37.65;18.45;;;6.10;94.00;;;;;;4988266;28;20356;-72
2023/02/11 03:56:44;;;;;;;38.45;19.30;;;6.20;94.00;;;;;;4982380;28;20027;-72
2023/02/11 03:59:10;;;;;;;36.75;18.35;;;6.10;94.00;;;;;;4987043;28;20459;-72
2023/02/11 04:01:35;;;;;;;33.13;17.20;;;6.10;94.10;;;;;;4985166;28;20043;-73
2023/02/11 04:04:01;;;;;;;31.75;15.88;;;6.20;94.00;;;;;;4988499;28;20076;-73
2023/02/11 04:06:26;;;;;;;35.45;16.65;;;6.20;94.00;;;;;;4987987;28;20038;-71
2023/02/11 04:08:52;;;;;;;32.30;17.52;;;6.30;93.90;;;;;;4987402;28;20109;-72
2023/02/11 04:11:17;;;;;;;33.08;16.85;;;6.20;94.00;;;;;;4981746;28;20446;-72
2023/02/11 04:13:43;;;;;;;39.53;17.60;;;6.20;93.90;;;;;;4972445;28;20074;-72
2023/02/11 04:16:08;;;;;;;31.98;17.50;;;6.20;94.10;;;;;;4987329;28;20605;-73
2023/02/11 04:18:34;;;;;;;34.22;16.05;;;6.20;94.00;;;;;;4988871;28;20030;-73
2023/02/11 04:20:59;;;;;;;31.15;15.52;;;6.20;94.10;;;;;;4987479;28;20486;-73
2023/02/11 04:23:25;;;;;;;26.98;16.75;;;6.20;94.10;;;;;;4988325;28;20050;-73
2023/02/11 04:25:50;;;;;;;31.23;15.52;;;6.20;94.10;;;;;;4984025;28;20558;-73
2023/02/11 04:28:16;;;;;;;31.13;16.25;;;6.20;94.20;;;;;;4984670;28;20526;-74
2023/02/11 04:30:41;;;;;;;31.23;16.27;;;6.30;94.10;;;;;;4986348;28;20459;-74
2023/02/11 04:33:07;;;;;;;38.10;16.20;;;6.30;94.10;;;;;;4983698;28;20034;-73
2023/02/11 04:35:32;;;;;;;29.85;15.18;;;6.30;94.10;;;;;;4985018;28;20057;-73
2023/02/11 04:37:58;;;;;;;31.02;15.93;;;6.30;94.20;;;;;;4985982;28;20081;-73
2023/02/11 04:40:23;;;;;;;23.38;13.40;;;6.20;94.20;;;;;;4986060;28;20038;-72
2023/02/11 04:42:48;;;;;;;37.00;16.23;;;6.30;94.30;;;;;;4987900;28;20537;-74
2023/02/11 04:45:14;;;;;;;35.45;15.00;;;6.30;94.20;;;;;;4981830;28;20049;-72
2023/02/11 04:47:39;;;;;;;34.90;16.60;;;6.30;94.20;;;;;;4985380;28;20042;-73
2023/02/11 04:50:05;;;;;;;30.15;14.60;;;6.40;94.20;;;;;;4989051;28;20486;-72
2023/02/11 04:52:31;;;;;;;31.95;15.68;;;6.30;94.20;;;;;;4988584;28;20030;-73
2023/02/11 04:54:56;;;;;;;31.40;14.55;;;6.30;94.20;;;;;;4989314;28;20364;-72
2023/02/11 04:57:21;;;;;;;28.10;14.90;;;6.30;94.30;;;;;;4990582;28;20145;-73
2023/02/11 04:59:47;;;;;;;32.72;14.27;;;6.30;94.30;;;;;;4990690;28;20419;-71
2023/02/11 05:02:13;;;;;;;30.77;15.10;;;6.30;94.30;;;;;;4991394;28;20050;-72
2023/02/11 05:04:38;;;;;;;35.40;15.57;;;6.30;94.40;;;;;;4992915;28;20077;-73
2023/02/11 05:07:04;;;;;;;28.05;13.70;;;6.40;94.50;;;;;;4990370;28;20045;-73
2023/02/11 05:09:29;;;;;;;29.75;14.73;;;6.30;94.50;;;;;;4986722;28;20030;-73
2023/02/11 05:11:55;;;;;;;32.10;15.85;;;6.40;94.50;;;;;;4989299;28;20379;-72
2023/02/11 05:14:20;;;;;;;24.90;13.18;;;6.30;94.40;;;;;;4985890;28;20045;-72
2023/02/11 05:16:46;;;;;;;37.85;15.23;;;6.40;94.60;;;;;;4991647;28;20245;-72
2023/02/11 05:19:11;;;;;;;32.10;14.73;;;6.40;94.50;;;;;;4990422;28;20034;-73
2023/02/11 05:21:37;;;;;;;35.13;13.43;;;6.40;94.60;;;;;;4987544;28;20037;-73
2023/02/11 05:24:02;;;;;;;30.85;14.65;;;6.50;94.50;;;;;;4988711;28;20476;-73
2023/02/11 05:26:28;;;;;;;27.40;14.45;;;6.40;94.50;;;;;;4988127;28;20042;-73
2023/02/11 05:28:53;;;;;;;32.08;14.95;;;6.40;94.70;;;;;;4986179;28;20037;-68
2023/02/11 05:31:19;;;;;;;34.67;15.43;;;6.40;94.70;;;;;;4987715;28;20452;-67
2023/02/11 05:33:44;;;;;;;27.50;14.50;;;6.40;94.80;;;;;;5000943;28;20037;-67
2023/02/11 05:36:12;;;;;;;29.73;15.25;;;6.40;94.90;;;;;;4993668;28;20034;-67
2023/02/11 05:38:38;;;;;;;32.17;14.70;;;6.40;94.90;;;;;;4990764;28;20034;-67
2023/02/11 05:41:05;;;;;;;31.67;14.80;;;6.40;95.10;;;;;;4987327;28;20073;-68
2023/02/11 05:43:31;;;;;;;30.33;14.98;;;6.40;95.20;;;;;;4990678;28;20038;-67
2023/02/11 05:45:56;;;;;;;32.50;14.55;;;6.40;95.20;;;;;;4986753;28;20398;-67
2023/02/11 05:48:22;;;;;;;29.63;13.52;;;6.40;95.30;;;;;;4990383;28;20026;-67
2023/02/11 05:50:48;;;;;;;28.70;15.35;;;6.40;95.40;;;;;;4986512;28;20049;-67
2023/02/11 05:53:13;;;;;;;32.17;14.35;;;6.40;95.30;;;;;;4986596;28;20557;-68
2023/02/11 05:55:39;;;;;;;25.75;13.23;;;6.40;95.50;;;;;;4988709;28;20045;-67
2023/02/11 05:58:05;;;;;;;30.27;13.82;;;6.40;95.50;;;;;;4988955;28;20040;-67
2023/02/11 06:00:30;;;;;;;27.20;14.02;;;6.40;95.50;;;;;;4984471;28;20062;-66
2023/02/11 06:02:56;;;;;;;27.83;14.48;;;6.40;95.60;;;;;;4986139;28;20477;-67
2023/02/11 06:05:21;;;;;;;30.02;14.77;;;6.40;95.60;;;;;;4989158;28;20483;-68
2023/02/11 06:07:47;;;;;;;27.77;14.40;;;6.40;95.80;;;;;;4989051;28;20037;-68
2023/02/11 06:10:13;;;;;;;33.10;14.32;;;6.40;96.00;;;;;;4987196;28;20372;-68
2023/02/11 06:12:38;;;;;;;35.40;15.27;;;6.40;96.10;;;;;;4988023;28;20113;-67
2023/02/11 06:15:05;;;;;;;29.77;13.02;;;6.40;96.10;;;;;;4984923;28;20434;-68
2023/02/11 06:17:32;;;;;;;31.67;14.30;;;6.40;96.30;;;;;;4989948;28;20073;-67
2023/02/11 06:19:58;;;;;;;32.88;14.82;;;6.40;96.30;;;;;;4988228;28;20110;-67
2023/02/11 06:22:25;;;;;;;29.25;13.50;;;6.40;96.40;;;;;;4988329;28;20053;-67
2023/02/11 06:24:50;;;;;;;30.55;14.35;;;6.40;96.50;;;;;;4987033;28;20113;-69
2023/02/11 06:27:17;;;;;;;29.25;14.25;;;6.50;96.60;;;;;;4983713;28;20132;-67
2023/02/11 06:29:43;;;;;;;29.05;14.45;;;6.40;96.60;;;;;;4988348;28;20348;-67
2023/02/11 06:32:10;;;;;;;27.10;14.88;;;6.40;96.70;;;;;;4987547;28;20022;-64
2023/02/11 06:34:36;;;;;;;30.42;15.48;;;6.50;96.70;;;;;;4987157;28;20041;-67
2023/02/11 06:37:03;;;;;;;25.83;14.27;;;6.40;96.70;;;;;;4986082;28;20041;-64
2023/02/11 06:39:29;;;;;;;31.58;15.00;;;6.50;96.90;;;;;;4983490;28;20043;-64
2023/02/11 06:41:54;;;;;;;30.40;14.27;;;6.50;96.90;;;;;;4994282;28;20510;-65
2023/02/11 06:44:20;;;;;;;41.10;15.55;;;6.40;96.90;;;;;;4985183;28;20030;-65
2023/02/11 06:46:46;;;;;;;37.50;16.00;;;6.40;97.10;;;;;;4984053;28;20065;-64
2023/02/11 06:49:12;;;;;;;25.27;14.93;;;6.50;97.10;;;;;;4987259;28;20402;-66
2023/02/11 06:51:37;;;;;;;33.83;15.65;;;6.40;97.20;;;;;;4987012;28;20117;-66
2023/02/11 06:54:04;;;;;;;27.77;14.60;;;6.40;97.20;;;;;;4984831;28;20161;-65
2023/02/11 06:56:30;;;;;;;35.60;16.05;;;6.40;97.30;;;;;;4982592;28;20022;-64
2023/02/11 06:58:56;;;;;;;34.13;15.27;;;6.40;97.30;;;;;;4982753;28;20076;-65
2023/02/11 07:01:23;;;;;;;30.55;16.35;;;6.40;97.30;;;;;;4990108;28;20449;-65
2023/02/11 07:03:50;;;;;;;31.45;14.60;;;6.40;97.40;;;;;;4990893;28;20034;-64
2023/02/11 07:06:19;;;;;;;31.23;16.48;;;6.50;97.40;;;;;;4990563;28;20026;-64
2023/02/11 07:08:45;;;;;;;30.75;15.63;;;6.50;97.30;;;;;;4991199;28;20038;-65
2023/02/11 07:11:16;;;;;;;29.23;16.02;;;6.50;97.30;;;;;;4983786;28;20066;-66
2023/02/11 07:13:42;;;;;;;28.90;14.02;;;6.50;97.40;;;;;;4984808;28;20084;-65
2023/02/11 07:16:11;;;;;;;33.67;15.68;;;6.50;97.40;;;;;;4985989;28;20038;-64
2023/02/11 07:18:36;;;;;;;29.95;13.77;;;6.50;97.50;;;;;;4988877;28;20030;-64
2023/02/11 07:21:10;;;;;;;28.70;14.93;;;6.50;97.40;;;;;;4985253;28;20026;-66
2023/02/11 07:23:36;;;;;;;33.13;14.07;;;6.50;97.50;;;;;;4978616;28;20117;-66
2023/02/11 07:26:11;;;;;;;33.40;14.95;;;6.50;97.50;;;;;;4985622;28;20034;-64
2023/02/11 07:28:38;;;;;;;31.30;14.70;;;6.50;97.60;;;;;;4981434;28;20065;-65
2023/02/11 07:31:25;;;;;;;33.13;15.70;;;6.50;97.60;;;;;;4983806;28;20098;-65
2023/02/11 07:33:53;;;;;;;32.15;15.95;;;6.50;97.70;;;;;;4997657;28;20037;-65
2023/02/11 07:36:18;;;;;;;30.98;14.90;;;6.50;97.80;;;;;;4999951;28;20636;-65
2023/02/11 07:38:44;;;;;;;26.20;13.82;;;6.50;98.00;;;;;;4990395;28;20034;-65
2023/02/11 07:41:12;;;;;;;37.38;16.55;;;6.50;98.10;;;;;;4991999;28;20049;-64
2023/02/11 07:43:39;;;;;;;32.78;15.88;;;6.50;98.20;;;;;;4989369;28;20054;-65
2023/02/11 07:46:06;;;;;;;37.72;16.27;;;6.50;98.30;;;;;;4984717;28;20194;-65
2023/02/11 07:48:32;;;;;;;31.13;16.73;;;6.40;98.40;;;;;;4992331;28;20080;-65
2023/02/11 07:51:06;;;;;;;33.35;16.20;;;6.50;98.60;;;;;;4994837;28;20065;-65
2023/02/11 07:53:38;;;;;;;33.60;16.58;;;6.50;98.60;;;;;;4988081;28;20467;-64
2023/02/11 07:56:05;;;;;;;30.70;15.15;;;6.40;98.70;;;;;;5004263;28;20043;-64
2023/02/11 07:58:31;;;;;;;30.52;14.95;;;6.50;98.80;;;;;;4988359;28;20030;-65
2023/02/11 08:01:05;;;;;;;33.22;15.68;;;6.50;98.90;;;;;;4986354;28;20026;-64
2023/02/11 08:03:31;;;;;;;32.72;15.80;;;6.50;99.00;;;;;;4987889;28;20125;-65
2023/02/11 08:05:58;;;;;;;34.00;15.90;;;6.40;99.00;;;;;;4983072;28;20125;-65
2023/02/11 08:08:27;;;;;;;30.88;15.43;;;6.50;99.10;;;;;;4985923;28;20037;-64
2023/02/11 08:10:52;;;;;;;32.65;14.77;;;6.50;99.20;;;;;;4981906;28;20026;-65
2023/02/11 08:13:18;;;;;;;39.45;16.67;;;6.50;99.20;;;;;;4981461;28;20038;-65
2023/02/11 08:15:43;;;;;;;29.08;16.33;;;6.50;99.20;;;;;;4980349;28;20121;-64
2023/02/11 08:18:09;;;;;;;31.48;15.93;;;6.60;99.30;;;;;;4981483;28;20038;-67
2023/02/11 08:20:34;;;;;;;26.58;16.38;;;6.60;99.30;;;;;;4990734;28;20101;-65
2023/02/11 08:23:00;;;;;;;26.45;16.45;;;6.50;99.40;;;;;;4987253;28;20854;-65
2023/02/11 08:25:26;;;;;;;31.75;17.15;;;6.60;99.40;;;;;;4987064;28;20042;-65
2023/02/11 08:27:52;;;;;;;35.10;17.15;;;6.60;99.40;;;;;;4986935;28;20046;-68
2023/02/11 08:30:17;;;;;;;32.55;16.55;;;6.60;99.40;;;;;;4990307;28;20041;-66
2023/02/11 08:32:43;;;;;;;39.90;17.13;;;6.60;99.50;;;;;;4986877;28;20036;-64
2023/02/11 08:35:11;;;;;;;37.33;18.48;;;6.60;99.60;;;;;;4981711;28;20069;-65
2023/02/11 08:37:36;;;;;;;37.35;17.60;;;6.60;99.60;;;;;;4985705;28;20027;-64
2023/02/11 08:40:02;;;;;;;31.60;16.23;;;6.60;99.60;;;;;;4988557;28;20048;-66
2023/02/11 08:42:28;;;;;;;33.83;15.60;;;6.60;99.60;;;;;;4990050;28;20089;-69
2023/02/11 08:44:53;;;;;;;29.90;16.67;;;6.60;99.70;;;;;;4987951;28;20047;-64
2023/02/11 08:47:18;;;;;;;27.65;16.02;;;6.70;99.70;;;;;;4986664;28;20479;-65
2023/02/11 08:49:44;;;;;;;35.45;17.10;;;6.70;99.70;;;;;;4987599;28;20084;-64
2023/02/11 08:52:09;;;;;;;35.85;16.63;;;6.70;99.70;;;;;;4984518;28;20030;-65
2023/02/11 08:54:36;;;;;;;32.20;15.32;;;6.70;99.70;;;;;;4991436;28;20486;-66
2023/02/11 08:57:02;;;;;;;31.08;16.90;;;6.70;99.70;;;;;;4989241;28;20048;-65
2023/02/11 08:59:27;;;;;;;28.30;15.80;;;6.80;99.80;;;;;;4984063;28;20378;-68
2023/02/11 09:01:53;;;;;;;34.88;16.42;;;6.80;99.80;;;;;;4987145;28;20066;-65
2023/02/11 09:04:19;;;;;;;27.90;14.52;;;6.80;99.80;;;;;;4990183;28;20038;-64
2023/02/11 09:06:45;;;;;;;25.92;14.10;;;6.80;99.90;;;;;;4986829;28;20110;-65
2023/02/11 09:09:13;;;;;;;31.23;15.48;;;6.80;99.90;;;;;;4999161;28;20058;-64
2023/02/11 09:11:40;;;;;;;33.33;16.23;;;6.80;99.90;;;;;;4991414;28;20479;-65
2023/02/11 09:14:06;;;;;;;32.95;15.35;;;6.80;99.90;;;;;;4987990;28;20081;-68
2023/02/11 09:16:34;;;;;;;29.05;14.80;;;6.80;99.90;;;;;;4979527;28;20594;-65
2023/02/11 09:19:02;;;;;;;32.45;15.65;;;6.90;99.90;;;;;;4992268;28;20038;-64
2023/02/11 09:21:28;;;;;;;28.77;14.73;;;6.90;99.90;;;;;;4992069;28;20045;-68
2023/02/11 09:23:55;;;;;;;29.15;15.45;;;6.90;99.90;;;;;;4988701;28;20034;-64
2023/02/11 09:26:23;;;;;;;30.88;15.00;;;6.90;99.90;;;;;;4984163;28;20038;-66
2023/02/11 09:28:50;;;;;;;26.17;14.85;;;6.90;99.90;;;;;;4987162;28;20034;-64
2023/02/11 09:31:19;;;;;;;27.35;14.25;;;7.00;99.90;;;;;;4991919;28;20046;-64
2023/02/11 09:33:47;;;;;;;24.95;14.13;;;7.00;99.90;;;;;;4990535;28;20526;-65
2023/02/11 09:36:16;;;;;;;29.90;14.32;;;7.00;99.90;;;;;;4989420;28;20034;-65
2023/02/11 09:38:42;;;;;;;28.90;14.05;;;7.00;99.90;;;;;;4983530;28;20065;-65
2023/02/11 09:41:42;;;;;;;30.17;14.52;;;7.00;99.90;;;;;;4987920;28;20114;-64
2023/02/11 09:44:30;;;;;;;30.10;13.27;;;7.00;99.90;;;;;;4988640;28;20455;-65
2023/02/11 09:47:01;;;;;;;24.75;12.40;;;7.00;99.90;;;;;;4988759;28;20062;-64
2023/02/11 09:49:37;;;;;;;21.10;12.27;;;7.00;99.90;;;;;;4989196;28;20841;-64
2023/02/11 09:52:28;;;;;;;27.88;14.40;;;7.00;99.80;;;;;;4990970;28;20562;-64
2023/02/11 09:54:56;;;;;;;28.63;13.17;;;7.00;99.80;;;;;;4987481;28;20117;-64
2023/02/11 09:57:25;;;;;;;24.00;13.18;;;7.00;99.80;;;;;;4993754;28;20301;-65
2023/02/11 09:59:50;;;;;;;24.67;12.32;;;7.00;99.80;;;;;;4982863;28;20030;-67
2023/02/11 10:02:29;;;;;;;23.60;12.05;;;7.10;99.80;;;;;;4988514;28;20052;-65
2023/02/11 10:05:36;;;;;;;25.77;12.88;;;7.10;99.80;;;;;;4985713;28;20065;-66
2023/02/11 10:08:08;;;;;;;25.50;12.77;;;7.10;99.70;;;;;;4986304;28;20084;-65
2023/02/11 10:10:55;;;;;;;22.00;12.50;;;7.10;99.70;;;;;;4983527;28;20041;-65
2023/02/11 10:13:34;;;;;;;27.75;13.38;;;7.10;99.70;;;;;;4988400;28;20057;-66
2023/02/11 10:16:37;;;;;;;23.02;12.77;;;7.10;99.80;;;;;;4980668;28;20386;-65
2023/02/11 10:19:16;;;;;;;19.33;11.40;;;7.10;99.80;;;;;;4985731;28;20467;-67
2023/02/11 10:21:57;;;;;;;23.70;11.93;;;7.10;99.80;;;;;;4990568;28;20088;-66
2023/02/11 10:24:24;;;;;;;20.20;10.43;;;7.10;99.80;;;;;;4989101;28;20057;-65
2023/02/11 10:26:51;;;;;;;17.75;9.77;;;7.10;99.90;;;;;;4984022;28;20058;-65
2023/02/11 10:29:42;;;;;;;21.92;12.00;;;7.10;99.90;;;;;;4988373;28;20052;-65
2023/02/11 10:32:28;;;;;;;20.17;11.40;;;7.10;99.90;;;;;;4979569;28;20022;-64
2023/02/11 10:35:00;;;;;;;20.08;11.93;;;7.10;99.90;;;;;;4983797;28;20386;-65
2023/02/11 10:37:26;;;;;;;23.27;11.27;;;7.10;99.90;;;;;;4985945;28;20034;-65
2023/02/11 10:39:51;;;;;;;26.80;11.48;;;7.20;99.90;;;;;;4987136;28;20394;-65
2023/02/11 10:42:17;;;;;;;22.17;11.82;;;7.10;99.90;;;;;;4984538;28;20118;-65
2023/02/11 10:44:56;;;;;;;25.00;12.02;;;7.10;99.90;;;;;;4984046;28;20062;-64
2023/02/11 10:47:26;;;;;;;20.52;11.50;;;7.20;99.90;;;;;;4990585;28;20046;-65
2023/02/11 10:49:51;;;;;;;25.95;12.55;;;7.20;99.90;;;;;;4989772;28;20121;-65
2023/02/11 10:52:19;;;;;;;27.77;13.23;;;7.20;99.80;;;;;;4988034;28;20121;-64
2023/02/11 10:55:08;;;;;;;26.98;12.38;;;7.10;99.80;;;;;;4988672;28;20332;-64
2023/02/11 10:57:37;;;;;;;24.30;10.68;;;7.20;99.90;;;;;;4949556;28;20052;-67
2023/02/11 11:00:18;;;;;;;23.88;12.95;;;7.20;99.80;;;;;;4976380;28;20062;-64
2023/02/11 11:02:51;;;;;;;25.30;12.88;;;7.10;99.80;;;;;;4989362;28;20388;-64
2023/02/11 11:05:19;;;;;;;23.98;12.07;;;7.20;99.90;;;;;;4989140;28;20092;-65
2023/02/11 11:07:54;;;;;;;27.05;13.18;;;7.20;99.80;;;;;;4988453;28;20483;-64
2023/02/11 11:10:28;;;;;;;28.05;12.85;;;7.20;99.80;;;;;;4989323;28;20022;-64
2023/02/11 11:12:53;;;;;;;24.23;12.63;;;7.20;99.80;;;;;;4980710;28;20040;-64
2023/02/11 11:15:22;;;;;;;28.27;13.07;;;7.20;99.70;;;;;;4984694;28;20422;-64
2023/02/11 11:17:49;;;;;;;32.80;13.40;;;7.20;99.70;;;;;;4984417;28;20379;-64
2023/02/11 11:20:21;;;;;;;32.25;13.57;;;7.20;99.70;;;;;;4987390;28;20384;-64
2023/02/11 11:22:48;;;;;;;27.70;12.85;;;7.20;99.70;;;;;;4990689;28;20038;-65
2023/02/11 11:25:25;;;;;;;29.23;13.02;;;7.20;99.70;;;;;;5004381;28;20507;-64
2023/02/11 11:27:54;;;;;;;28.98;13.23;;;7.20;99.70;;;;;;4986870;28;20065;-64
2023/02/11 11:30:21;;;;;;;26.40;11.63;;;7.20;99.70;;;;;;4992644;28;20038;-64
2023/02/11 11:32:47;;;;;;;32.83;13.70;;;7.30;99.60;;;;;;4984926;28;20030;-64
2023/02/11 11:35:28;;;;;;;28.98;12.38;;;7.20;99.60;;;;;;4988593;28;20041;-64
2023/02/11 11:38:00;;;;;;;37.25;13.50;;;7.20;99.50;;;;;;4987267;28;20217;-65
2023/02/11 11:40:31;;;;;;;33.58;12.93;;;7.20;99.50;;;;;;4988706;28;20109;-64
2023/02/11 11:43:15;;;;;;;27.50;12.45;;;7.20;99.50;;;;;;4984559;28;20038;-64
2023/02/11 11:45:57;;;;;;;28.45;12.88;;;7.20;99.60;;;;;;4986949;28;20053;-65
2023/02/11 11:48:31;;;;;;;26.70;11.68;;;7.30;99.60;;;;;;4991151;28;20116;-65
2023/02/11 11:51:00;;;;;;;27.10;12.00;;;7.30;99.60;;;;;;5001176;28;20367;-64
2023/02/11 11:53:50;;;;;;;27.65;12.27;;;7.30;99.60;;;;;;4993016;28;20347;-64
2023/02/11 11:56:26;;;;;;;27.10;12.85;;;7.30;99.60;;;;;;4993179;28;20035;-64
2023/02/11 11:58:53;;;;;;;36.83;14.05;;;7.30;99.60;;;;;;4988543;28;20054;-64
2023/02/11 12:01:53;;;;;;;22.67;11.75;;;7.30;99.70;;;;;;4992601;28;20022;-64
2023/02/11 12:04:53;;;;;;;27.80;12.40;;;7.30;99.70;;;;;;4988289;28;20109;-64
2023/02/11 12:07:52;;;;;;;28.25;13.32;;;7.40;99.70;;;;;;4991886;28;20035;-66
2023/02/11 12:10:57;;;;;;;31.85;11.77;;;7.40;99.70;;;;;;4990007;28;20471;-64
2023/02/11 12:13:58;;;;;;;22.48;10.70;;;7.40;99.70;;;;;;4983168;28;20035;-67
2023/02/11 12:16:32;;;;;;;20.27;10.27;;;7.30;99.70;;;;;;4989007;28;20042;-64
2023/02/11 12:19:32;;;;;;;23.90;11.02;;;7.40;99.70;;;;;;4989962;28;20041;-64
2023/02/11 12:22:22;;;;;;;22.88;10.40;;;7.40;99.70;;;;;;4994591;28;20053;-64
2023/02/11 12:25:34;;;;;;;23.75;9.63;;;7.40;99.60;;;;;;4994248;28;20517;-64
2023/02/11 12:28:28;;;;;;;33.78;12.48;;;7.40;99.50;;;;;;4990776;28;20108;-64
2023/02/11 12:31:03;;;;;;;25.48;11.50;;;7.40;99.60;;;;;;4991299;28;20038;-64
2023/02/11 12:33:48;;;;;;;23.67;11.38;;;7.50;99.50;;;;;;4991554;28;20019;-65
2023/02/11 12:36:30;;;;;;;27.23;11.93;;;7.40;99.50;;;;;;4993991;28;20434;-64
2023/02/11 12:39:16;;;;;;;26.02;10.77;;;7.40;99.50;;;;;;4985766;28;20042;-65
2023/02/11 12:45:10;;;;;;;19.80;9.27;;;7.40;99.60;;;;;;4993145;28;20037;-65
2023/02/11 12:48:11;;;;;;;26.33;11.15;;;7.40;99.60;;;;;;4988362;28;20043;-64
2023/02/11 12:50:56;;;;;;;27.60;11.60;;;7.40;99.70;;;;;;4991866;28;20041;-64
2023/02/11 12:53:50;;;;;;;20.30;11.15;;;7.40;99.70;;;;;;4989957;28;20527;-66
2023/02/11 12:56:37;;;;;;;23.55;11.15;;;7.40;99.80;;;;;;4995161;28;20463;-64
2023/02/11 12:59:05;;;;;;;27.48;11.90;;;7.40;99.80;;;;;;4983337;28;20158;-64
2023/02/11 13:01:40;;;;;;;25.00;11.50;;;7.40;99.80;;;;;;4994656;28;20034;-68
2023/02/11 13:04:34;;;;;;;24.52;11.75;;;7.40;99.90;;;;;;4990893;28;20034;-65